Time;durP1;ratioP1;P1;durP2;ratioP2;P2;SDS_P1;SDS_P2;PMS_P1;PMS_P2;Temp;Humidity;BMP_temperature;BMP_pressure;BME280_temperature;BME280_humidity;BME280_pressure;Samples;Min_cycle;Max_cycle;Signal;HPM_P1;HPM_P2
2023/06/28 00:01:36;;;;;;;6.13;1.80;;;13.90;73.80;;;;;;4762322;30;20048;-88
2023/06/28 00:04:05;;;;;;;5.85;2.40;;;13.80;74.00;;;;;;4754607;30;20158;-88
2023/06/28 00:06:32;;;;;;;8.13;2.50;;;13.70;74.60;;;;;;4748939;30;20052;-88
2023/06/28 00:08:59;;;;;;;6.75;2.40;;;13.50;74.90;;;;;;4760729;30;20047;-88
2023/06/28 00:11:28;;;;;;;6.28;2.00;;;13.50;75.20;;;;;;4748708;30;20052;-88
2023/06/28 00:13:55;;;;;;;7.20;2.50;;;13.40;75.30;;;;;;4762349;30;20053;-87
2023/06/28 00:16:22;;;;;;;5.80;2.72;;;13.40;75.70;;;;;;4754270;30;20052;-88
2023/06/28 00:18:49;;;;;;;5.25;2.28;;;13.40;75.80;;;;;;4750342;30;20059;-88
2023/06/28 00:21:16;;;;;;;5.60;1.98;;;13.40;75.70;;;;;;4766287;30;20048;-87
2023/06/28 00:23:43;;;;;;;6.60;2.50;;;13.50;75.50;;;;;;4744253;30;20048;-88
2023/06/28 00:26:10;;;;;;;6.50;2.77;;;13.50;75.80;;;;;;4765901;30;20568;-88
2023/06/28 00:28:37;;;;;;;8.05;2.65;;;13.60;76.00;;;;;;4764210;30;20086;-88
2023/06/28 00:31:08;;;;;;;5.95;2.47;;;13.50;75.90;;;;;;4754743;30;20047;-88
2023/06/28 00:33:35;;;;;;;7.32;2.40;;;13.50;75.90;;;;;;4760427;30;20130;-88
2023/06/28 00:36:02;;;;;;;5.72;2.60;;;13.50;75.80;;;;;;4762011;30;20036;-88
2023/06/28 00:38:29;;;;;;;6.07;2.40;;;13.50;76.00;;;;;;4763053;30;20479;-88
2023/06/28 00:40:56;;;;;;;7.32;2.50;;;13.30;75.90;;;;;;4763097;30;20139;-87
2023/06/28 00:43:25;;;;;;;7.95;3.03;;;13.10;76.70;;;;;;4759332;30;20435;-88
2023/06/28 00:45:52;;;;;;;5.50;2.50;;;13.10;76.80;;;;;;4763799;30;20410;-87
2023/06/28 00:48:19;;;;;;;6.35;2.75;;;13.00;76.70;;;;;;4763863;30;20090;-87
2023/06/28 00:50:46;;;;;;;6.53;2.47;;;13.10;76.70;;;;;;4763856;30;20058;-88
2023/06/28 00:53:16;;;;;;;6.53;3.00;;;13.10;76.60;;;;;;4764044;30;20048;-88
2023/06/28 00:55:45;;;;;;;5.75;2.58;;;13.10;76.50;;;;;;4766963;30;20036;-88
2023/06/28 00:58:12;;;;;;;8.07;2.72;;;13.10;76.80;;;;;;4755300;30;20134;-87
2023/06/28 01:00:39;;;;;;;6.47;2.80;;;13.10;77.10;;;;;;4770459;30;20520;-88
2023/06/28 01:03:09;;;;;;;6.27;2.10;;;13.20;76.80;;;;;;4766216;30;20075;-88
2023/06/28 01:05:36;;;;;;;8.50;2.75;;;13.10;76.70;;;;;;4765238;30;20083;-88
2023/06/28 01:08:04;;;;;;;6.75;2.90;;;13.20;76.60;;;;;;4765580;30;20048;-87
2023/06/28 01:10:36;;;;;;;6.53;2.70;;;13.30;76.60;;;;;;4767924;30;20054;-87
2023/06/28 01:13:07;;;;;;;6.25;2.72;;;13.40;76.10;;;;;;4763314;30;20044;-88
2023/06/28 01:15:35;;;;;;;6.53;2.50;;;13.40;75.90;;;;;;4748808;30;20445;-88
2023/06/28 01:18:02;;;;;;;7.38;2.72;;;13.50;76.00;;;;;;4763298;30;20039;-87
2023/06/28 01:20:30;;;;;;;6.07;2.45;;;13.50;76.10;;;;;;4765380;30;20108;-88
2023/06/28 01:22:58;;;;;;;6.07;2.08;;;13.50;75.80;;;;;;4764663;30;20578;-87
2023/06/28 01:25:25;;;;;;;6.30;2.13;;;13.40;75.90;;;;;;4763725;30;20068;-88
2023/06/28 01:27:55;;;;;;;7.67;2.50;;;13.30;75.70;;;;;;4756851;30;20057;-87
2023/06/28 01:30:23;;;;;;;6.88;2.65;;;13.30;76.10;;;;;;4749415;30;20098;-88
2023/06/28 01:32:53;;;;;;;7.65;3.33;;;13.10;76.40;;;;;;4763152;30;20452;-88
2023/06/28 01:35:21;;;;;;;7.82;3.20;;;13.10;76.80;;;;;;4763492;30;20051;-88
2023/06/28 01:37:49;;;;;;;6.78;2.80;;;13.00;77.00;;;;;;4764879;30;20399;-88
2023/06/28 01:40:17;;;;;;;7.13;2.90;;;13.00;77.20;;;;;;4749273;30;20059;-88
2023/06/28 01:42:44;;;;;;;9.75;3.83;;;13.00;76.80;;;;;;4769248;30;20054;-88
2023/06/28 01:45:12;;;;;;;9.05;3.47;;;13.00;76.70;;;;;;4765253;30;20055;-89
2023/06/28 01:47:39;;;;;;;7.60;3.50;;;13.20;76.40;;;;;;4753305;30;20059;-88
2023/06/28 01:50:07;;;;;;;9.38;3.72;;;13.20;76.00;;;;;;4765788;30;20051;-88
2023/06/28 01:52:35;;;;;;;8.67;4.23;;;13.30;75.80;;;;;;4764582;30;20568;-88
2023/06/28 01:55:03;;;;;;;7.38;3.40;;;13.20;75.70;;;;;;4763368;30;20200;-88
2023/06/28 01:57:30;;;;;;;10.77;3.97;;;13.20;75.50;;;;;;4764291;30;20051;-88
2023/06/28 01:59:57;;;;;;;8.32;3.60;;;13.30;75.40;;;;;;4751782;30;20463;-88
2023/06/28 02:02:24;;;;;;;8.68;3.58;;;13.10;75.50;;;;;;4763702;30;20091;-88
2023/06/28 02:04:51;;;;;;;10.20;3.30;;;13.10;75.90;;;;;;4760476;30;20059;-87
2023/06/28 02:07:18;;;;;;;7.32;3.35;;;13.10;75.80;;;;;;4764839;30;20134;-88
2023/06/28 02:09:45;;;;;;;8.23;3.50;;;13.10;76.00;;;;;;4748480;30;20043;-88
2023/06/28 02:12:12;;;;;;;6.68;3.25;;;13.00;76.60;;;;;;4764356;30;20052;-87
2023/06/28 02:14:39;;;;;;;9.80;4.20;;;12.90;76.90;;;;;;4763876;30;20055;-88
2023/06/28 02:17:15;;;;;;;9.83;4.27;;;12.90;77.20;;;;;;4762003;30;20043;-87
2023/06/28 02:19:44;;;;;;;8.48;3.40;;;12.80;77.80;;;;;;4763771;30;20051;-87
2023/06/28 02:22:11;;;;;;;9.60;4.05;;;12.60;78.40;;;;;;4760442;30;20113;-88
2023/06/28 02:24:38;;;;;;;9.82;3.70;;;12.60;78.50;;;;;;4764497;30;20081;-88
2023/06/28 02:27:05;;;;;;;7.93;4.00;;;12.70;78.30;;;;;;4761944;30;20055;-87
2023/06/28 02:29:32;;;;;;;8.67;3.93;;;12.80;78.20;;;;;;4761736;30;20043;-88
2023/06/28 02:32:00;;;;;;;9.90;4.00;;;12.70;78.20;;;;;;4762489;30;20075;-87
2023/06/28 02:34:27;;;;;;;9.25;4.05;;;12.80;78.30;;;;;;4776507;30;20047;-87
2023/06/28 02:36:54;;;;;;;9.13;3.97;;;12.70;78.60;;;;;;4762735;30;20134;-87
2023/06/28 02:39:22;;;;;;;8.48;3.80;;;12.70;78.90;;;;;;4763024;30;20075;-88
2023/06/28 02:41:50;;;;;;;9.17;4.03;;;12.60;79.00;;;;;;4775860;30;20047;-87
2023/06/28 02:44:17;;;;;;;9.63;3.75;;;12.50;79.40;;;;;;4761277;30;20479;-87
2023/06/28 02:46:45;;;;;;;8.48;3.63;;;12.30;79.80;;;;;;4763042;30;20086;-88
2023/06/28 02:49:12;;;;;;;8.15;4.18;;;12.30;80.00;;;;;;4765612;30;20047;-88
2023/06/28 02:51:39;;;;;;;8.48;3.90;;;12.50;79.60;;;;;;4764078;30;20101;-87
2023/06/28 02:54:09;;;;;;;8.73;3.17;;;12.50;79.40;;;;;;4761146;30;20043;-87
2023/06/28 02:56:36;;;;;;;7.95;3.60;;;12.50;79.20;;;;;;4755970;30;20498;-87
2023/06/28 02:59:32;;;;;;;9.07;3.70;;;12.50;79.30;;;;;;4754489;30;20522;-86
2023/06/28 03:02:00;;;;;;;7.22;3.30;;;12.50;79.60;;;;;;4761404;30;20059;-86
2023/06/28 03:04:27;;;;;;;7.80;3.50;;;12.40;79.70;;;;;;4746760;30;20048;-87
2023/06/28 03:06:56;;;;;;;8.73;3.73;;;12.40;79.80;;;;;;4760130;30;20089;-87
2023/06/28 03:09:24;;;;;;;9.43;3.72;;;12.40;80.00;;;;;;4748043;30;20096;-87
2023/06/28 03:11:51;;;;;;;10.18;3.60;;;12.30;80.10;;;;;;4745528;30;20094;-86
2023/06/28 03:14:18;;;;;;;7.10;3.17;;;12.40;80.00;;;;;;4761042;30;20043;-86
2023/06/28 03:16:45;;;;;;;7.13;3.22;;;12.50;79.70;;;;;;4750892;30;20055;-86
2023/06/28 03:19:12;;;;;;;7.20;2.83;;;12.50;79.60;;;;;;4748585;30;20471;-87
2023/06/28 03:21:41;;;;;;;7.65;3.22;;;12.50;79.70;;;;;;4762917;30;20051;-86
2023/06/28 03:24:08;;;;;;;7.28;3.20;;;12.40;79.60;;;;;;4759781;30;20126;-86
2023/06/28 03:26:35;;;;;;;6.72;3.03;;;12.40;79.70;;;;;;4762339;30;20054;-86
2023/06/28 03:29:02;;;;;;;6.70;2.97;;;12.30;79.80;;;;;;4752568;30;20130;-86
2023/06/28 03:31:31;;;;;;;6.67;3.00;;;12.30;80.00;;;;;;4740694;30;20059;-87
2023/06/28 03:34:00;;;;;;;6.93;3.38;;;12.20;80.10;;;;;;4762475;30;20055;-87
2023/06/28 03:36:29;;;;;;;9.68;3.50;;;12.20;80.40;;;;;;4759414;30;20047;-87
2023/06/28 03:38:56;;;;;;;7.15;3.17;;;12.30;80.40;;;;;;4760788;30;20044;-88
2023/06/28 03:41:27;;;;;;;8.07;3.17;;;12.30;80.20;;;;;;4755411;30;20043;-87
2023/06/28 03:43:54;;;;;;;7.77;3.30;;;12.40;79.90;;;;;;4762633;30;20051;-88
2023/06/28 03:46:22;;;;;;;6.90;2.90;;;12.50;79.60;;;;;;4755673;30;20039;-89
2023/06/28 03:48:49;;;;;;;8.25;3.58;;;12.50;79.50;;;;;;4765051;30;20052;-88
2023/06/28 03:51:16;;;;;;;8.55;3.28;;;12.50;79.80;;;;;;4757739;30;20047;-86
2023/06/28 03:53:50;;;;;;;7.95;3.28;;;12.50;79.40;;;;;;4766087;30;20058;-89
2023/06/28 03:56:17;;;;;;;6.20;2.87;;;12.50;79.50;;;;;;4749981;30;20048;-89
2023/06/28 03:58:45;;;;;;;7.78;3.08;;;12.60;79.40;;;;;;4766048;30;21563;-88
2023/06/28 04:01:13;;;;;;;6.55;3.10;;;12.60;79.30;;;;;;4748440;30;20079;-88
2023/06/28 04:03:40;;;;;;;6.82;2.70;;;12.70;79.20;;;;;;4748454;30;20109;-89
2023/06/28 04:06:07;;;;;;;8.13;3.10;;;12.70;78.80;;;;;;4776153;30;20055;-88
2023/06/28 04:08:34;;;;;;;6.73;2.80;;;12.70;79.20;;;;;;4764413;30;20411;-88
2023/06/28 04:11:02;;;;;;;7.20;2.80;;;12.80;78.90;;;;;;4760575;30;20726;-88
2023/06/28 04:13:29;;;;;;;7.45;2.90;;;12.80;78.90;;;;;;4764744;30;20058;-88
2023/06/28 04:15:56;;;;;;;7.35;2.80;;;12.70;78.60;;;;;;4758081;30;20050;-88
2023/06/28 04:18:23;;;;;;;6.82;2.53;;;12.70;78.90;;;;;;4752921;30;20056;-88
2023/06/28 04:20:50;;;;;;;5.90;2.53;;;12.70;78.90;;;;;;4763508;30;20581;-88
2023/06/28 04:23:17;;;;;;;7.20;2.78;;;12.80;78.60;;;;;;4766677;30;20050;-88
2023/06/28 04:25:46;;;;;;;5.45;2.42;;;12.80;78.90;;;;;;4768269;30;20101;-88
2023/06/28 04:28:13;;;;;;;8.35;2.90;;;12.80;78.70;;;;;;4764699;30;20449;-88
2023/06/28 04:30:40;;;;;;;6.97;2.70;;;12.80;78.90;;;;;;4770225;30;20146;-88
2023/06/28 04:33:07;;;;;;;7.50;2.80;;;12.90;78.90;;;;;;4749158;30;20113;-88
2023/06/28 04:35:34;;;;;;;7.75;2.90;;;12.90;78.80;;;;;;4764106;30;20440;-88
2023/06/28 04:38:03;;;;;;;6.82;2.78;;;12.80;79.00;;;;;;4769916;30;20049;-88
2023/06/28 04:40:32;;;;;;;6.05;2.45;;;12.80;79.00;;;;;;4761261;30;20063;-88
2023/06/28 04:42:59;;;;;;;5.63;2.33;;;12.90;78.90;;;;;;4761891;30;20547;-89
2023/06/28 04:45:36;;;;;;;5.87;2.30;;;12.90;78.70;;;;;;4763303;30;20062;-88
2023/06/28 04:48:05;;;;;;;6.05;2.20;;;12.90;78.60;;;;;;4752077;30;20047;-88
2023/06/28 04:50:33;;;;;;;6.65;2.45;;;13.00;78.90;;;;;;4767600;30;20052;-88
2023/06/28 04:53:03;;;;;;;6.40;2.80;;;12.90;78.80;;;;;;4765845;30;20499;-89
2023/06/28 04:55:34;;;;;;;5.68;2.10;;;12.90;79.00;;;;;;4754411;30;20075;-88
2023/06/28 04:58:03;;;;;;;6.20;2.30;;;13.00;78.80;;;;;;4765204;30;20054;-89
2023/06/28 05:00:31;;;;;;;7.20;2.20;;;13.00;78.90;;;;;;4766926;30;20070;-89
2023/06/28 05:03:02;;;;;;;5.85;2.20;;;13.00;78.70;;;;;;4764511;30;20055;-88
2023/06/28 05:05:29;;;;;;;5.72;2.28;;;13.10;78.60;;;;;;4760051;30;20106;-88
2023/06/28 05:07:59;;;;;;;8.27;3.03;;;13.10;78.40;;;;;;4763668;30;20520;-88
2023/06/28 05:10:27;;;;;;;6.40;2.33;;;13.10;78.40;;;;;;4762069;30;20059;-89
2023/06/28 05:12:54;;;;;;;7.10;2.50;;;13.20;78.40;;;;;;4767141;30;20054;-88
2023/06/28 05:15:21;;;;;;;6.97;2.70;;;13.10;78.40;;;;;;4770733;30;20051;-88
2023/06/28 05:17:48;;;;;;;5.55;2.47;;;13.10;78.60;;;;;;4756568;30;20139;-89
2023/06/28 05:20:15;;;;;;;6.68;2.50;;;13.10;78.40;;;;;;4762320;30;20051;-88
2023/06/28 05:22:49;;;;;;;7.43;2.60;;;13.10;79.00;;;;;;4758233;30;20052;-89
2023/06/28 05:25:16;;;;;;;6.50;2.30;;;13.10;78.80;;;;;;4762907;30;20047;-89
2023/06/28 05:27:43;;;;;;;5.95;2.30;;;13.20;78.90;;;;;;4762867;30;20051;-88
2023/06/28 05:30:11;;;;;;;6.63;3.33;;;13.30;78.80;;;;;;4759860;30;20576;-89
2023/06/28 05:32:38;;;;;;;7.20;2.95;;;13.40;79.20;;;;;;4766096;30;20410;-88
2023/06/28 05:35:05;;;;;;;10.00;3.10;;;13.30;79.50;;;;;;4766782;30;20123;-89
2023/06/28 05:37:32;;;;;;;8.98;3.53;;;13.30;79.70;;;;;;4753811;30;20043;-88
2023/06/28 05:39:59;;;;;;;8.82;3.38;;;13.30;79.90;;;;;;4762334;30;20051;-88
2023/06/28 05:42:26;;;;;;;7.03;3.05;;;13.30;80.10;;;;;;4750825;30;20558;-88
2023/06/28 05:44:54;;;;;;;7.47;3.67;;;13.40;80.10;;;;;;4755664;30;20139;-88
2023/06/28 05:47:21;;;;;;;7.23;3.57;;;13.50;79.80;;;;;;4756870;30;20059;-88
2023/06/28 05:49:49;;;;;;;9.45;2.90;;;13.50;79.60;;;;;;4763072;30;20108;-89
2023/06/28 05:52:16;;;;;;;11.10;3.88;;;13.50;79.30;;;;;;4762755;30;20079;-89
2023/06/28 05:54:43;;;;;;;7.72;3.60;;;13.70;79.40;;;;;;4768798;30;20064;-89
2023/06/28 05:57:11;;;;;;;8.23;4.00;;;13.90;79.70;;;;;;4756305;30;20047;-88
2023/06/28 05:59:38;;;;;;;8.73;3.80;;;13.90;78.40;;;;;;4761107;30;20392;-89
2023/06/28 06:02:06;;;;;;;8.27;4.10;;;14.00;78.70;;;;;;4762888;30;20059;-89
2023/06/28 06:04:33;;;;;;;8.57;3.92;;;14.00;78.60;;;;;;4748539;30;20052;-89
2023/06/28 06:07:00;;;;;;;8.35;3.90;;;14.20;78.40;;;;;;4755140;30;20044;-89
2023/06/28 06:09:29;;;;;;;8.02;3.42;;;14.30;77.70;;;;;;4764855;30;20082;-89
2023/06/28 06:11:56;;;;;;;10.70;5.60;;;14.50;77.70;;;;;;4762402;30;20043;-89
2023/06/28 06:14:23;;;;;;;7.00;3.55;;;14.60;76.60;;;;;;4759918;30;20043;-88
2023/06/28 06:16:50;;;;;;;8.02;3.22;;;14.80;76.30;;;;;;4763378;30;20075;-88
2023/06/28 06:19:17;;;;;;;6.60;2.80;;;15.00;76.50;;;;;;4766696;30;20383;-88
2023/06/28 06:21:45;;;;;;;10.93;3.40;;;15.20;76.70;;;;;;4762613;30;20040;-88
2023/06/28 06:24:12;;;;;;;11.80;3.90;;;15.40;74.40;;;;;;4757518;30;20056;-89
2023/06/28 06:26:39;;;;;;;10.48;3.80;;;15.50;74.40;;;;;;4765786;30;20506;-89
2023/06/28 06:29:06;;;;;;;10.25;3.58;;;15.80;74.80;;;;;;4760963;30;20138;-89
2023/06/28 06:31:33;;;;;;;12.45;4.13;;;16.00;74.20;;;;;;4755502;30;20058;-88
2023/06/28 06:34:01;;;;;;;10.45;2.95;;;16.00;72.70;;;;;;4766167;30;20114;-89
2023/06/28 06:36:28;;;;;;;8.93;2.87;;;16.10;72.70;;;;;;4754726;30;20071;-89
2023/06/28 06:38:59;;;;;;;12.77;3.10;;;16.10;72.50;;;;;;4765466;30;20143;-89
2023/06/28 06:41:26;;;;;;;19.15;5.70;;;16.20;72.70;;;;;;4757068;30;20514;-89
2023/06/28 06:43:54;;;;;;;15.90;5.50;;;16.50;72.40;;;;;;4764762;30;20067;-89
2023/06/28 06:46:21;;;;;;;13.50;4.22;;;16.90;69.60;;;;;;4774045;30;20055;-89
2023/06/28 06:48:48;;;;;;;16.03;5.17;;;17.30;68.80;;;;;;4764348;30;20058;-88
2023/06/28 06:51:15;;;;;;;10.88;3.47;;;17.40;68.40;;;;;;4752671;30;20142;-88
2023/06/28 06:53:42;;;;;;;11.48;3.90;;;17.50;68.10;;;;;;4763661;30;20047;-88
2023/06/28 06:56:09;;;;;;;13.20;4.60;;;17.50;67.40;;;;;;4758021;30;20044;-88
2023/06/28 06:58:36;;;;;;;10.15;3.25;;;17.80;65.30;;;;;;4762970;30;20051;-88
2023/06/28 07:01:04;;;;;;;35.70;3.77;;;17.90;65.10;;;;;;4745879;30;20121;-88
2023/06/28 07:03:31;;;;;;;12.27;1.67;;;18.00;64.20;;;;;;4765310;30;20491;-89
2023/06/28 07:05:59;;;;;;;8.05;1.65;;;18.00;62.50;;;;;;4762325;30;20056;-88
2023/06/28 07:08:27;;;;;;;9.02;1.80;;;18.00;62.70;;;;;;4761583;30;20047;-89
2023/06/28 07:10:54;;;;;;;7.47;2.05;;;18.00;62.80;;;;;;4760700;30;20105;-89
2023/06/28 07:13:21;;;;;;;27.97;2.63;;;18.30;62.10;;;;;;4761320;30;20157;-89
2023/06/28 07:15:48;;;;;;;5.60;1.30;;;18.50;62.20;;;;;;4759561;30;20074;-89
2023/06/28 07:18:15;;;;;;;4.55;0.93;;;18.60;62.30;;;;;;4761357;30;20051;-89
2023/06/28 07:20:42;;;;;;;4.00;0.75;;;18.90;61.90;;;;;;4762070;30;20051;-88
2023/06/28 07:23:09;;;;;;;4.32;1.00;;;19.10;62.50;;;;;;4751808;30;20514;-89
2023/06/28 07:25:38;;;;;;;3.63;0.80;;;19.10;59.00;;;;;;4763476;30;20487;-88
2023/06/28 07:28:05;;;;;;;3.47;0.80;;;19.00;59.00;;;;;;4751631;30;20056;-89
2023/06/28 07:30:51;;;;;;;6.30;0.95;;;18.80;59.80;;;;;;4762154;30;20075;-89
2023/06/28 07:33:18;;;;;;;6.60;1.00;;;18.80;60.10;;;;;;4760538;30;20054;-89
2023/06/28 07:35:45;;;;;;;6.80;1.17;;;19.00;60.80;;;;;;4758599;30;21208;-88
2023/06/28 07:38:12;;;;;;;4.23;0.60;;;18.90;58.40;;;;;;4763439;30;20042;-89
2023/06/28 07:40:39;;;;;;;4.18;0.90;;;18.60;59.00;;;;;;4750403;30;20048;-88
2023/06/28 07:43:07;;;;;;;5.07;0.93;;;18.30;60.00;;;;;;4763247;30;20059;-89
2023/06/28 07:45:34;;;;;;;5.00;1.25;;;18.10;59.90;;;;;;4766292;30;20048;-89
2023/06/28 07:48:01;;;;;;;3.72;0.80;;;18.40;59.90;;;;;;4750899;30;20055;-89
2023/06/28 07:50:28;;;;;;;4.53;1.27;;;18.60;60.70;;;;;;4760670;30;20542;-89
2023/06/28 07:52:55;;;;;;;4.38;0.80;;;18.60;59.50;;;;;;4763533;30;20055;-89
2023/06/28 07:55:22;;;;;;;5.30;0.80;;;18.80;60.10;;;;;;4752698;30;20040;-89
2023/06/28 07:57:50;;;;;;;4.15;0.80;;;19.10;58.60;;;;;;4760085;30;20043;-88
2023/06/28 08:00:17;;;;;;;4.60;1.10;;;19.20;57.90;;;;;;4760956;30;20043;-89
2023/06/28 08:02:44;;;;;;;3.17;0.60;;;19.30;57.00;;;;;;4766039;30;20494;-89
2023/06/28 08:05:12;;;;;;;5.78;1.30;;;19.50;56.60;;;;;;4755394;30;20055;-88
2023/06/28 08:07:39;;;;;;;7.93;1.67;;;19.30;58.60;;;;;;4762604;30;20098;-89
2023/06/28 08:10:06;;;;;;;4.18;1.10;;;19.20;58.00;;;;;;4745494;30;20047;-89
2023/06/28 08:12:33;;;;;;;7.35;1.20;;;19.30;58.90;;;;;;4766541;30;20383;-89
2023/06/28 08:15:00;;;;;;;5.43;1.13;;;19.60;58.60;;;;;;4761286;30;20064;-89
2023/06/28 08:17:27;;;;;;;6.10;0.95;;;19.80;57.70;;;;;;4768307;30;20048;-89
2023/06/28 08:19:55;;;;;;;7.68;1.20;;;19.60;56.20;;;;;;4762888;30;20048;-89
2023/06/28 08:22:22;;;;;;;4.43;1.10;;;19.50;57.70;;;;;;4753520;30;20482;-89
2023/06/28 08:24:49;;;;;;;5.65;1.00;;;19.70;58.90;;;;;;4763589;30;20059;-88
2023/06/28 08:27:16;;;;;;;8.77;1.30;;;19.90;55.30;;;;;;4751459;30;20521;-89
2023/06/28 08:29:43;;;;;;;7.00;1.08;;;20.00;56.50;;;;;;4766133;30;20383;-89
2023/06/28 08:32:10;;;;;;;4.22;0.80;;;20.00;56.50;;;;;;4760811;30;20052;-89
2023/06/28 08:34:37;;;;;;;3.78;1.10;;;19.80;53.50;;;;;;4763808;30;20051;-89
2023/06/28 08:37:05;;;;;;;3.58;1.00;;;19.90;54.50;;;;;;4758138;30;20055;-88
2023/06/28 08:39:32;;;;;;;3.87;0.70;;;19.90;55.30;;;;;;4759500;30;20059;-89
2023/06/28 08:42:01;;;;;;;8.18;1.10;;;19.70;54.30;;;;;;4765454;30;20040;-89
2023/06/28 08:44:32;;;;;;;3.47;1.00;;;19.50;56.80;;;;;;4765112;30;20051;-89
2023/06/28 08:47:00;;;;;;;6.20;1.20;;;19.40;59.40;;;;;;4753450;30;20054;-89
2023/06/28 08:49:28;;;;;;;6.72;1.30;;;19.10;60.10;;;;;;4769549;30;20063;-89
2023/06/28 08:51:55;;;;;;;4.30;1.27;;;19.00;62.60;;;;;;4754476;30;20415;-89
2023/06/28 08:54:24;;;;;;;4.43;1.20;;;18.80;63.50;;;;;;4744124;30;20047;-89
2023/06/28 08:56:53;;;;;;;5.43;1.20;;;18.60;63.20;;;;;;4753283;30;20051;-89
2023/06/28 08:59:26;;;;;;;2.72;1.10;;;18.40;63.60;;;;;;4762953;30;20101;-89
2023/06/28 09:01:55;;;;;;;4.50;1.27;;;18.40;64.30;;;;;;4748154;30;20040;-89
2023/06/28 09:04:24;;;;;;;6.77;1.60;;;18.60;65.50;;;;;;4761399;30;20059;-89
2023/06/28 09:06:51;;;;;;;6.30;1.10;;;18.90;63.30;;;;;;4763708;30;20052;-89
2023/06/28 09:09:19;;;;;;;4.60;1.45;;;19.00;63.60;;;;;;4767875;30;20051;-89
2023/06/28 09:11:46;;;;;;;3.40;0.90;;;18.90;64.00;;;;;;4754423;30;20062;-89
2023/06/28 09:14:13;;;;;;;6.47;1.20;;;18.80;62.30;;;;;;4749012;30;20043;-89
2023/06/28 09:16:40;;;;;;;7.73;1.70;;;18.50;63.00;;;;;;4779873;30;20039;-89
2023/06/28 09:19:07;;;;;;;8.30;1.90;;;18.40;65.20;;;;;;4767165;30;20541;-89
2023/06/28 09:21:34;;;;;;;12.63;2.58;;;18.00;69.80;;;;;;4757644;30;20046;-89
2023/06/28 09:24:02;;;;;;;6.65;1.58;;;17.90;71.10;;;;;;4766751;30;20058;-89
2023/06/28 09:26:30;;;;;;;7.55;2.22;;;17.70;70.30;;;;;;4764217;30;20066;-88
2023/06/28 09:29:10;;;;;;;7.43;1.67;;;17.80;72.20;;;;;;4766585;30;20109;-89
2023/06/28 09:31:41;;;;;;;6.53;1.90;;;17.80;71.70;;;;;;4763833;30;20062;-88
2023/06/28 09:34:09;;;;;;;8.07;1.70;;;17.90;71.40;;;;;;4765950;30;20047;-89
2023/06/28 09:36:37;;;;;;;6.78;1.70;;;18.00;71.00;;;;;;4767208;30;20055;-89
2023/06/28 09:39:05;;;;;;;5.50;2.10;;;18.00;71.60;;;;;;4758984;30;20052;-89
2023/06/28 09:41:39;;;;;;;14.50;2.43;;;18.00;72.70;;;;;;4762587;30;20111;-88
2023/06/28 09:44:10;;;;;;;6.18;1.88;;;18.00;72.90;;;;;;4761772;30;20060;-89
2023/06/28 09:46:47;;;;;;;4.30;1.33;;;17.90;71.00;;;;;;4762725;30;20572;-89
2023/06/28 09:49:22;;;;;;;5.50;1.60;;;17.90;69.80;;;;;;4762216;30;20047;-88
2023/06/28 09:52:03;;;;;;;7.13;1.67;;;18.30;73.10;;;;;;4763576;30;20432;-89
2023/06/28 10:09:03;;;;;;;5.60;1.33;;;19.10;65.40;;;;;;5093006;27;20451;-87
2023/06/28 10:11:36;;;;;;;4.97;1.40;;;18.50;66.10;;;;;;5089734;28;20067;-87
2023/06/28 10:14:06;;;;;;;4.38;1.20;;;18.40;65.40;;;;;;5074812;28;20044;-86
2023/06/28 10:16:34;;;;;;;4.57;1.20;;;18.00;64.60;;;;;;5074508;28;20083;-87
2023/06/28 10:19:02;;;;;;;6.70;1.30;;;17.60;66.60;;;;;;5074819;28;20051;-87
2023/06/28 10:21:29;;;;;;;6.10;1.43;;;17.40;68.60;;;;;;5073045;28;20054;-86
2023/06/28 10:23:59;;;;;;;6.57;1.48;;;17.00;69.70;;;;;;5088959;28;20082;-86
2023/06/28 10:26:28;;;;;;;6.00;1.23;;;16.60;70.00;;;;;;5089329;28;20052;-87
2023/06/28 10:28:57;;;;;;;4.88;0.98;;;16.50;69.90;;;;;;5071360;28;20132;-87
2023/06/28 10:31:24;;;;;;;3.58;1.20;;;16.40;70.30;;;;;;5088271;28;20045;-86
2023/06/28 10:33:54;;;;;;;3.80;1.20;;;16.10;70.10;;;;;;5074227;28;20040;-86
2023/06/28 10:36:21;;;;;;;6.50;1.10;;;16.00;70.80;;;;;;5069341;28;20124;-87
2023/06/28 10:38:51;;;;;;;5.03;1.00;;;16.00;70.60;;;;;;5073701;28;20075;-87
2023/06/28 10:41:19;;;;;;;4.00;1.20;;;16.00;72.10;;;;;;5089612;28;20032;-87
2023/06/28 10:43:46;;;;;;;5.20;1.20;;;16.30;73.00;;;;;;5074403;28;20528;-86
2023/06/28 10:46:25;;;;;;;4.50;1.50;;;16.40;73.40;;;;;;5089749;28;20047;-86
2023/06/28 10:48:59;;;;;;;3.72;1.30;;;16.50;75.50;;;;;;5089400;28;20523;-86
2023/06/28 10:51:28;;;;;;;6.35;1.38;;;16.60;73.30;;;;;;5091609;28;20470;-87
2023/06/28 10:54:09;;;;;;;6.57;1.42;;;16.70;74.50;;;;;;5076919;28;20033;-87
2023/06/28 10:57:07;;;;;;;8.40;1.48;;;16.80;74.50;;;;;;5090791;28;20104;-86
2023/06/28 10:59:42;;;;;;;5.93;1.60;;;17.00;73.20;;;;;;5071699;28;20102;-87
2023/06/28 11:02:09;;;;;;;8.43;1.70;;;17.10;72.50;;;;;;5089240;28;20036;-87
2023/06/28 11:04:56;;;;;;;7.57;2.20;;;17.60;73.80;;;;;;5072831;28;20094;-87
2023/06/28 11:07:23;;;;;;;6.97;1.23;;;18.10;72.50;;;;;;5088459;28;20402;-88
2023/06/28 11:10:16;;;;;;;3.97;1.35;;;18.40;68.50;;;;;;5060645;28;20094;-87
2023/06/28 11:12:50;;;;;;;5.80;1.73;;;18.70;67.80;;;;;;5064725;28;20135;-87
2023/06/28 11:15:28;;;;;;;4.47;1.52;;;18.80;67.90;;;;;;5075214;28;20128;-87
2023/06/28 11:18:08;;;;;;;4.28;1.08;;;18.90;68.80;;;;;;5072988;28;20051;-87
2023/06/28 11:20:48;;;;;;;14.60;5.30;;;19.00;66.60;;;;;;5078098;28;20037;-87
2023/06/28 11:23:29;;;;;;;14.93;5.47;;;19.00;65.20;;;;;;5058665;28;20048;-87
2023/06/28 11:25:57;;;;;;;12.33;4.93;;;18.80;65.30;;;;;;5086067;28;20051;-87
2023/06/28 11:28:32;;;;;;;9.45;2.90;;;18.80;67.00;;;;;;5077448;28;20035;-87
2023/06/28 11:31:21;;;;;;;3.67;1.20;;;18.90;70.10;;;;;;5073173;28;20048;-87
2023/06/28 11:33:54;;;;;;;4.10;1.55;;;18.90;64.10;;;;;;5072603;28;20087;-87
2023/06/28 11:36:25;;;;;;;5.00;1.30;;;18.90;65.90;;;;;;5080476;28;20036;-87
2023/06/28 11:38:52;;;;;;;4.53;1.27;;;19.20;62.30;;;;;;5078253;28;20118;-87
2023/06/28 11:41:19;;;;;;;5.43;1.27;;;19.50;59.70;;;;;;5058625;28;20143;-88
2023/06/28 11:43:47;;;;;;;4.30;1.30;;;19.90;57.50;;;;;;5078634;28;20481;-87
2023/06/28 11:46:19;;;;;;;6.25;1.50;;;20.30;60.10;;;;;;5060858;28;20493;-87
2023/06/28 11:48:48;;;;;;;3.53;1.38;;;20.60;57.20;;;;;;5073783;28;20382;-88
2023/06/28 11:51:15;;;;;;;4.30;1.37;;;20.80;56.70;;;;;;5057810;28;20036;-87
2023/06/28 11:53:48;;;;;;;4.82;1.50;;;20.90;56.30;;;;;;5074360;28;20064;-87
2023/06/28 11:56:16;;;;;;;5.35;1.35;;;20.80;55.50;;;;;;5073553;28;20094;-87
2023/06/28 11:58:43;;;;;;;5.47;1.55;;;20.50;55.80;;;;;;5078168;28;20251;-88
2023/06/28 12:01:21;;;;;;;5.72;1.40;;;20.10;57.70;;;;;;5075668;28;20048;-87
2023/06/28 12:03:48;;;;;;;6.80;1.63;;;20.00;59.60;;;;;;5059923;28;20083;-88
2023/06/28 12:06:16;;;;;;;5.32;1.92;;;19.60;62.50;;;;;;5057476;28;20048;-87
2023/06/28 12:08:43;;;;;;;5.22;1.65;;;19.00;65.60;;;;;;5059843;28;20086;-87
2023/06/28 12:11:15;;;;;;;7.10;1.60;;;18.60;67.10;;;;;;5072551;28;20127;-86
2023/06/28 12:13:44;;;;;;;4.90;1.35;;;18.30;68.20;;;;;;5069988;28;20041;-87
2023/06/28 12:16:16;;;;;;;3.67;1.07;;;18.10;67.20;;;;;;5058483;28;20036;-87
2023/06/28 12:19:02;;;;;;;4.10;1.20;;;17.90;67.50;;;;;;5059252;28;20048;-86
2023/06/28 12:21:30;;;;;;;3.55;1.27;;;17.80;66.80;;;;;;5061917;28;20044;-87
2023/06/28 12:24:17;;;;;;;6.85;1.30;;;17.80;66.60;;;;;;5061339;28;20044;-86
2023/06/28 12:26:48;;;;;;;3.60;1.30;;;17.90;66.60;;;;;;5075601;28;20047;-87
2023/06/28 12:29:22;;;;;;;3.53;1.03;;;18.00;65.00;;;;;;5074513;28;20520;-87
2023/06/28 12:31:52;;;;;;;4.47;1.10;;;18.20;65.80;;;;;;5071329;28;20116;-87
2023/06/28 12:34:28;;;;;;;5.47;1.40;;;18.30;66.50;;;;;;5060417;28;20481;-87
2023/06/28 12:36:57;;;;;;;4.32;1.50;;;18.50;65.90;;;;;;5072210;28;20110;-87
2023/06/28 12:39:26;;;;;;;4.22;1.58;;;18.70;65.50;;;;;;5059406;28;20040;-87
2023/06/28 12:42:10;;;;;;;4.23;1.47;;;18.70;64.20;;;;;;5075696;28;20067;-87
2023/06/28 12:44:54;;;;;;;4.43;1.40;;;18.90;66.60;;;;;;5061535;28;20045;-87
2023/06/28 12:47:23;;;;;;;7.07;1.95;;;19.10;64.30;;;;;;5075480;28;20131;-88
2023/06/28 12:49:51;;;;;;;4.10;1.50;;;19.60;61.90;;;;;;5077417;28;20036;-86
2023/06/28 12:52:22;;;;;;;5.25;1.40;;;20.10;64.20;;;;;;5056894;28;20094;-87
2023/06/28 12:54:53;;;;;;;5.73;1.93;;;20.30;62.80;;;;;;5058104;28;20044;-88
2023/06/28 12:57:22;;;;;;;5.63;1.50;;;20.30;61.30;;;;;;5073736;28;20045;-87
2023/06/28 12:59:50;;;;;;;5.47;1.45;;;20.30;63.70;;;;;;5060690;28;20036;-88
2023/06/28 13:02:18;;;;;;;5.50;1.35;;;20.30;64.20;;;;;;5072950;28;20044;-84
2023/06/28 13:04:45;;;;;;;8.48;2.30;;;20.30;61.20;;;;;;5073862;28;20048;-89
2023/06/28 13:07:12;;;;;;;5.47;1.90;;;20.50;62.50;;;;;;5074343;28;20060;-89
2023/06/28 13:09:39;;;;;;;6.68;1.90;;;20.80;59.50;;;;;;5057557;28;20041;-89